createdAt,value
2019-04-04T00:02:04.087Z,3.82
2019-04-04T00:04:35.162Z,3.84
2019-04-04T00:07:06.163Z,3.83
2019-04-04T00:09:37.181Z,3.79
2019-04-04T00:12:08.704Z,3.83
2019-04-04T00:14:43.484Z,3.77
2019-04-04T00:17:15.461Z,3.73
2019-04-04T00:19:47.508Z,3.72
2019-04-04T00:22:19.332Z,3.66
2019-04-04T00:24:51.176Z,3.60
2019-04-04T00:27:25.408Z,3.61
2019-04-04T00:30:02.791Z,3.62
2019-04-04T00:32:34.180Z,3.68
2019-04-04T00:35:12.025Z,3.66
2019-04-04T00:37:43.340Z,3.65
2019-04-04T00:40:14.669Z,3.64
2019-04-04T00:42:54.925Z,3.63
2019-04-04T00:45:28.730Z,3.66
2019-04-04T00:48:03.083Z,3.67
2019-04-04T00:50:36.775Z,3.68
2019-04-04T00:53:12.316Z,3.64
2019-04-04T00:55:48.876Z,3.64
2019-04-04T00:58:20.833Z,3.60
2019-04-04T01:00:54.915Z,3.62
2019-04-04T01:03:32.132Z,3.64
2019-04-04T01:06:03.781Z,3.69
2019-04-04T01:08:38.011Z,3.58
2019-04-04T01:11:08.138Z,3.54
2019-04-04T01:13:39.569Z,3.55
2019-04-04T01:16:10.898Z,3.53
2019-04-04T01:18:42.279Z,3.49
2019-04-04T01:21:13.661Z,3.42
2019-04-04T01:23:50.942Z,3.42
2019-04-04T01:26:31.250Z,3.44
2019-04-04T01:29:05.506Z,3.36
2019-04-04T01:31:46.026Z,3.34
2019-04-04T01:34:20.802Z,3.27
2019-04-04T01:36:51.958Z,3.07
2019-04-04T01:39:35.018Z,3.04
2019-04-04T01:42:07.224Z,2.99
2019-04-04T01:44:40.157Z,2.92
2019-04-04T01:47:17.651Z,2.90
2019-04-04T01:49:49.963Z,2.89
2019-04-04T01:52:27.773Z,2.88
2019-04-04T01:54:59.125Z,2.89
2019-04-04T01:57:30.429Z,2.79
2019-04-04T02:00:02.849Z,2.78
2019-04-04T02:02:34.606Z,2.72
2019-04-04T02:05:08.815Z,2.64
2019-04-04T02:07:39.939Z,2.63
2019-04-04T02:10:11.073Z,2.61
2019-04-04T02:12:42.241Z,2.60
2019-04-04T02:15:14.274Z,2.50
2019-04-04T02:17:46.170Z,2.46
2019-04-04T02:20:17.572Z,2.39
2019-04-04T02:22:52.015Z,2.36
2019-04-04T02:25:23.134Z,2.29
2019-04-04T02:27:54.191Z,2.31
2019-04-04T02:30:25.332Z,2.25
2019-04-04T02:32:59.332Z,2.04
2019-04-04T02:35:29.364Z,2.07
2019-04-04T02:38:00.612Z,2.00
2019-04-04T02:40:31.813Z,1.93
2019-04-04T02:43:02.924Z,1.87
2019-04-04T02:45:35.687Z,1.85
2019-04-04T02:48:07.041Z,1.74
2019-04-04T02:50:38.231Z,1.73
2019-04-04T02:53:09.504Z,1.74
2019-04-04T02:55:40.634Z,1.60
2019-04-04T02:58:15.089Z,1.89
2019-04-04T03:00:44.596Z,1.94
2019-04-04T03:03:17.384Z,2.25
2019-04-04T03:05:51.952Z,2.33
2019-04-04T03:08:22.335Z,2.41
2019-04-04T03:10:53.519Z,2.54
2019-04-04T03:13:24.620Z,2.50
2019-04-04T03:15:55.726Z,2.54
2019-04-04T03:18:26.808Z,2.44
2019-04-04T03:20:58.067Z,2.65
2019-04-04T03:23:32.984Z,2.71
2019-04-04T03:26:03.294Z,2.91
2019-04-04T03:28:34.524Z,2.92
2019-04-04T03:31:05.664Z,2.93
2019-04-04T03:33:36.933Z,2.98
2019-04-04T03:36:07.979Z,3.08
2019-04-04T03:38:39.210Z,3.10
2019-04-04T03:41:10.219Z,3.11
2019-04-04T03:43:41.404Z,3.17
2019-04-04T03:46:12.604Z,3.13
2019-04-04T03:48:43.862Z,3.19
2019-04-04T03:51:15.087Z,3.31
2019-04-04T03:53:50.567Z,3.33
2019-04-04T03:56:22.153Z,3.42
2019-04-04T03:58:53.274Z,3.42
2019-04-04T04:01:24.362Z,3.59
2019-04-04T04:03:56.976Z,3.78
2019-04-04T04:06:28.044Z,4.05
2019-04-04T04:08:59.160Z,4.10
2019-04-04T04:11:30.257Z,4.21
2019-04-04T04:14:01.417Z,4.33
2019-04-04T04:16:34.766Z,4.48
2019-04-04T04:19:05.397Z,4.59
2019-04-04T04:21:36.595Z,4.66
2019-04-04T04:24:07.645Z,4.64
2019-04-04T04:26:42.002Z,4.72
2019-04-04T04:29:11.637Z,4.98
2019-04-04T04:31:42.712Z,4.97
2019-04-04T04:34:14.001Z,5.03
2019-04-04T04:36:47.692Z,5.23
2019-04-04T04:39:18.103Z,5.39
2019-04-04T04:41:53.138Z,5.85
2019-04-04T04:44:22.261Z,6.12
2019-04-04T04:46:53.618Z,6.55
2019-04-04T04:49:25.851Z,6.26
2019-04-04T04:51:57.122Z,5.89
2019-04-04T04:54:28.247Z,5.96
2019-04-04T04:57:03.546Z,6.26
2019-04-04T04:59:32.365Z,6.47
2019-04-04T05:02:03.472Z,6.38
2019-04-04T05:04:36.145Z,6.28
2019-04-04T05:07:08.031Z,6.29
2019-04-04T05:09:39.404Z,6.62
2019-04-04T05:12:10.760Z,6.84
2019-04-04T05:14:42.262Z,7.38
2019-04-04T05:17:13.586Z,8.01
2019-04-04T05:19:46.008Z,7.22
2019-04-04T05:22:17.175Z,7.51
2019-04-04T05:25:06.892Z,7.51
2019-04-04T05:27:21.146Z,7.94
2019-04-04T05:29:52.355Z,8.29
2019-04-04T05:32:23.430Z,8.63
2019-04-04T05:34:55.638Z,9.43
2019-04-04T05:37:27.594Z,9.97
2019-04-04T05:39:58.950Z,11.78
2019-04-04T05:42:32.816Z,12.89
2019-04-04T05:45:02.977Z,13.63
2019-04-04T05:47:34.407Z,14.67
2019-04-04T05:50:06.201Z,14.40
2019-04-04T05:52:37.482Z,11.33
2019-04-04T05:55:10.855Z,13.45
2019-04-04T05:57:41.590Z,16.25
2019-04-04T06:00:14.004Z,16.66
2019-04-04T06:02:45.339Z,16.08
2019-04-04T06:05:17.220Z,16.13
2019-04-04T06:07:48.451Z,16.42
2019-04-04T06:10:19.612Z,15.47
2019-04-04T06:12:50.840Z,16.75
2019-04-04T06:15:22.011Z,16.51
2019-04-04T06:17:53.143Z,17.30
2019-04-04T06:20:24.473Z,17.70
2019-04-04T06:22:55.568Z,13.42
2019-04-04T06:25:26.963Z,10.80
2019-04-04T06:27:58.257Z,8.99
2019-04-04T06:30:42.256Z,8.14
2019-04-04T06:33:04.740Z,7.39
2019-04-04T06:35:35.498Z,6.89
2019-04-04T06:38:06.642Z,6.89
2019-04-04T06:40:37.730Z,6.81
2019-04-04T06:43:11.516Z,6.75
2019-04-04T06:45:41.649Z,6.88
2019-04-04T06:48:12.825Z,7.14
2019-04-04T06:50:43.862Z,7.39
2019-04-04T06:53:15.131Z,7.42
2019-04-04T06:55:46.212Z,7.70
2019-04-04T06:58:17.392Z,7.65
2019-04-04T07:00:50.151Z,7.88
2019-04-04T07:03:21.422Z,7.83
2019-04-04T07:05:52.673Z,7.83
2019-04-04T07:08:23.726Z,7.93
2019-04-04T07:10:58.226Z,7.79
2019-04-04T07:13:28.315Z,7.73
2019-04-04T07:16:07.002Z,7.75
2019-04-04T07:18:32.678Z,7.95
2019-04-04T07:21:03.845Z,7.91
2019-04-04T07:23:35.007Z,7.90
2019-04-04T07:26:06.253Z,7.90
2019-04-04T07:28:38.474Z,8.03
2019-04-04T07:31:09.653Z,8.07
2019-04-04T07:33:42.579Z,8.23
2019-04-04T07:36:13.535Z,8.40
2019-04-04T07:38:44.654Z,8.56
2019-04-04T07:41:15.897Z,8.43
2019-04-04T07:43:46.994Z,8.43
2019-04-04T07:46:18.159Z,8.36
2019-04-04T07:48:51.587Z,8.36
2019-04-04T07:51:22.424Z,8.46
2019-04-04T07:53:53.612Z,8.50
2019-04-04T07:56:24.715Z,8.60
2019-04-04T07:58:55.913Z,8.65
2019-04-04T08:01:26.966Z,8.65
2019-04-04T08:03:58.074Z,8.58
2019-04-04T08:06:29.269Z,8.47
2019-04-04T08:09:03.713Z,8.46
2019-04-04T08:11:35.010Z,8.46
2019-04-04T08:14:06.153Z,8.56
2019-04-04T08:16:37.326Z,8.67
2019-04-04T08:19:08.510Z,8.67
2019-04-04T08:21:39.529Z,8.48
2019-04-04T08:24:10.523Z,8.47
2019-04-04T08:26:41.877Z,8.51
2019-04-04T08:29:12.967Z,8.73
2019-04-04T08:31:44.103Z,8.94
2019-04-04T08:34:15.342Z,8.91
2019-04-04T08:36:46.360Z,8.96
2019-04-04T08:39:17.474Z,8.68
2019-04-04T08:41:48.511Z,8.54
2019-04-04T08:44:19.712Z,8.43
2019-04-04T08:46:50.713Z,8.60
2019-04-04T08:49:21.707Z,9.03
2019-04-04T08:51:52.748Z,9.03
2019-04-04T08:54:23.705Z,9.08
2019-04-04T08:56:54.788Z,9.02
2019-04-04T08:59:25.781Z,8.99
2019-04-04T09:01:56.852Z,8.99
2019-04-04T09:04:27.870Z,8.89
2019-04-04T09:06:58.898Z,8.83
2019-04-04T09:09:29.854Z,8.66
2019-04-04T09:12:01.107Z,9.00
2019-04-04T09:14:32.223Z,9.00
2019-04-04T09:17:03.176Z,9.18
2019-04-04T09:19:34.244Z,9.18
2019-04-04T09:22:05.524Z,9.28
2019-04-04T09:24:36.656Z,9.43
2019-04-04T09:27:07.904Z,9.55
2019-04-04T09:29:38.977Z,9.39
2019-04-04T09:32:10.045Z,9.19
2019-04-04T09:34:41.092Z,9.07
2019-04-04T09:37:12.043Z,9.06
2019-04-04T09:39:43.063Z,8.99
2019-04-04T09:42:14.197Z,9.11
2019-04-04T09:44:45.208Z,9.11
2019-04-04T09:47:16.261Z,9.15
2019-04-04T09:49:47.361Z,9.32
2019-04-04T09:52:18.628Z,9.48
2019-04-04T09:54:50.758Z,9.46
2019-04-04T09:57:21.962Z,9.43
2019-04-04T09:59:53.295Z,9.48
2019-04-04T10:02:24.331Z,9.55
2019-04-04T10:04:55.334Z,9.74
2019-04-04T10:07:26.874Z,9.81
2019-04-04T10:09:58.006Z,9.73
2019-04-04T10:12:30.520Z,9.55
2019-04-04T10:15:01.610Z,9.42
2019-04-04T10:17:32.845Z,9.27
2019-04-04T10:20:06.084Z,9.38
2019-04-04T10:22:37.225Z,9.38
2019-04-04T10:25:08.323Z,9.65
2019-04-04T10:27:39.437Z,9.72
2019-04-04T10:30:10.663Z,9.74
2019-04-04T10:32:41.816Z,9.76
2019-04-04T10:35:13.014Z,10.01
2019-04-04T10:37:44.156Z,10.08
2019-04-04T10:40:15.399Z,10.00
2019-04-04T10:42:46.615Z,10.02
2019-04-04T10:45:17.774Z,9.86
2019-04-04T10:47:48.930Z,9.99
2019-04-04T10:50:20.003Z,9.97
2019-04-04T10:52:51.175Z,10.09
2019-04-04T10:55:22.209Z,9.96
2019-04-04T10:57:53.415Z,10.18
2019-04-04T11:00:24.798Z,9.99
2019-04-04T11:02:55.905Z,10.21
2019-04-04T11:05:26.920Z,10.31
2019-04-04T11:07:58.203Z,10.23
2019-04-04T11:10:29.334Z,10.18
2019-04-04T11:13:02.881Z,10.16
2019-04-04T11:15:33.434Z,10.17
2019-04-04T11:18:04.470Z,10.20
2019-04-04T11:20:35.574Z,10.31
2019-04-04T11:23:06.796Z,10.24
2019-04-04T11:25:37.982Z,10.27
2019-04-04T11:28:09.160Z,10.18
2019-04-04T11:30:40.199Z,10.20
2019-04-04T11:33:11.299Z,10.34
2019-04-04T11:35:42.441Z,10.26
2019-04-04T11:38:14.671Z,10.28
2019-04-04T11:40:45.754Z,10.27
2019-04-04T11:43:17.390Z,10.27
2019-04-04T11:45:48.446Z,10.56
2019-04-04T11:48:19.613Z,10.58
2019-04-04T11:50:53.490Z,10.47
2019-04-04T11:53:25.137Z,10.44
2019-04-04T11:55:56.333Z,10.58
2019-04-04T11:58:27.461Z,10.74
2019-04-04T12:01:06.197Z,10.71
2019-04-04T12:03:37.361Z,10.76
2019-04-04T12:06:08.408Z,10.76
2019-04-04T12:08:39.421Z,10.92
2019-04-04T12:11:10.643Z,10.85
2019-04-04T12:13:41.877Z,11.02
2019-04-04T12:16:12.993Z,10.76
2019-04-04T12:18:44.204Z,10.76
2019-04-04T12:21:15.298Z,10.75
2019-04-04T12:23:46.430Z,10.58
2019-04-04T12:26:17.617Z,10.66
2019-04-04T12:28:48.751Z,10.58
2019-04-04T12:31:19.780Z,10.75
2019-04-04T12:33:50.861Z,10.86
2019-04-04T12:36:24.676Z,10.81
2019-04-04T12:38:55.150Z,10.81
2019-04-04T12:41:28.222Z,10.85
2019-04-04T12:43:59.367Z,10.93
2019-04-04T12:46:30.521Z,11.10
2019-04-04T12:49:01.612Z,11.13
2019-04-04T12:51:33.038Z,11.00
2019-04-04T12:54:04.173Z,10.86
2019-04-04T12:56:35.424Z,10.81
2019-04-04T12:59:06.569Z,10.89
2019-04-04T13:01:37.656Z,10.94
2019-04-04T13:04:08.999Z,10.90
2019-04-04T13:06:40.098Z,10.88
2019-04-04T13:09:11.355Z,11.01
2019-04-04T13:11:44.162Z,10.99
2019-04-04T13:14:15.301Z,11.05
2019-04-04T13:16:46.487Z,11.07
2019-04-04T13:19:17.571Z,11.20
2019-04-04T13:21:48.731Z,11.14
2019-04-04T13:24:19.872Z,11.20
2019-04-04T13:26:51.179Z,11.40
2019-04-04T13:29:22.256Z,11.29
2019-04-04T13:31:53.274Z,11.26
2019-04-04T13:34:24.604Z,11.41
2019-04-04T13:36:55.725Z,11.30
2019-04-04T13:39:26.763Z,11.05
2019-04-04T13:41:57.900Z,11.03
2019-04-04T13:44:29.028Z,10.97
2019-04-04T13:47:02.797Z,11.02
2019-04-04T13:49:33.160Z,11.02
2019-04-04T13:52:04.441Z,11.07
2019-04-04T13:54:35.714Z,11.15
2019-04-04T13:57:06.936Z,11.19
2019-04-04T13:59:38.178Z,11.27
2019-04-04T14:02:09.420Z,11.35
2019-04-04T14:04:40.577Z,11.27
2019-04-04T14:07:11.692Z,11.27
2019-04-04T14:09:45.207Z,11.19
2019-04-04T14:12:15.666Z,11.20
2019-04-04T14:14:47.197Z,11.22
2019-04-04T14:17:18.347Z,11.34
2019-04-04T14:19:49.434Z,11.27
2019-04-04T14:22:20.506Z,11.36
2019-04-04T14:24:51.573Z,11.21
2019-04-04T14:27:22.619Z,11.21
2019-04-04T14:29:55.304Z,11.15
2019-04-04T14:32:26.568Z,11.15
2019-04-04T14:34:57.624Z,11.10
2019-04-04T14:37:28.735Z,11.11
2019-04-04T14:39:59.936Z,11.15
2019-04-04T14:42:31.213Z,11.14
2019-04-04T14:45:02.884Z,11.05
2019-04-04T14:47:34.993Z,11.08
2019-04-04T14:50:07.528Z,10.95
2019-04-04T14:52:39.963Z,10.89
2019-04-04T14:55:11.125Z,10.95
2019-04-04T14:57:43.351Z,10.98
2019-04-04T15:00:16.156Z,10.97
2019-04-04T15:02:47.307Z,10.95
2019-04-04T15:05:19.562Z,10.98
2019-04-04T15:07:50.658Z,10.94
2019-04-04T15:10:21.982Z,10.97
2019-04-04T15:12:53.022Z,10.94
2019-04-04T15:15:26.251Z,10.87
2019-04-04T15:17:57.159Z,10.85
2019-04-04T15:20:30.638Z,10.89
2019-04-04T15:23:02.028Z,10.87
2019-04-04T15:25:33.271Z,10.82
2019-04-04T15:28:04.416Z,10.73
2019-04-04T15:30:35.471Z,10.72
2019-04-04T15:33:06.497Z,10.72
2019-04-04T15:35:37.680Z,10.66
2019-04-04T15:38:09.870Z,10.61
2019-04-04T15:40:41.107Z,10.57
2019-04-04T15:43:12.301Z,10.59
2019-04-04T15:45:44.563Z,10.51
2019-04-04T15:48:15.594Z,10.49
2019-04-04T15:50:46.685Z,10.47
2019-04-04T15:53:18.160Z,10.37
2019-04-04T15:55:49.308Z,10.30
2019-04-04T15:58:20.822Z,10.24
2019-04-04T16:00:52.215Z,10.20
2019-04-04T16:03:23.441Z,10.17
2019-04-04T16:05:54.636Z,10.14
2019-04-04T16:08:25.840Z,10.07
2019-04-04T16:11:00.146Z,10.01
2019-04-04T16:13:31.480Z,10.01
2019-04-04T16:16:05.275Z,9.94
2019-04-04T16:18:36.514Z,9.90
2019-04-04T16:21:07.982Z,9.87
2019-04-04T16:23:39.462Z,9.81
2019-04-04T16:26:10.611Z,9.75
2019-04-04T16:28:43.237Z,9.79
2019-04-04T16:31:14.329Z,9.72
2019-04-04T16:33:45.672Z,9.71
2019-04-04T16:36:16.898Z,9.63
2019-04-04T16:38:48.065Z,9.54
2019-04-04T16:41:19.120Z,9.48
2019-04-04T16:43:50.293Z,9.48
2019-04-04T16:46:21.527Z,9.43
2019-04-04T16:48:52.657Z,9.34
2019-04-04T16:51:23.868Z,9.28
2019-04-04T16:53:55.016Z,9.21
2019-04-04T16:56:26.235Z,9.18
2019-04-04T16:58:57.327Z,9.18
2019-04-04T17:01:28.462Z,9.15
2019-04-04T17:04:01.942Z,9.11
2019-04-04T17:06:33.019Z,9.06
2019-04-04T17:09:05.750Z,8.97
2019-04-04T17:11:37.076Z,8.98
2019-04-04T17:14:08.346Z,8.95
2019-04-04T17:16:39.645Z,8.98
2019-04-04T17:19:11.940Z,8.92
2019-04-04T17:21:43.065Z,8.91
2019-04-04T17:24:14.322Z,8.82
2019-04-04T17:26:45.500Z,8.86
2019-04-04T17:29:16.805Z,8.76
2019-04-04T17:31:50.393Z,8.68
2019-04-04T17:34:21.660Z,8.59
2019-04-04T17:36:54.360Z,8.51
2019-04-04T17:39:25.659Z,8.49
2019-04-04T17:41:57.127Z,8.46
2019-04-04T17:44:28.560Z,8.39
2019-04-04T17:47:03.232Z,8.34
2019-04-04T17:49:34.682Z,8.26
2019-04-04T17:52:07.898Z,8.16
2019-04-04T17:54:39.552Z,8.09
2019-04-04T17:57:11.118Z,7.96
2019-04-04T17:59:42.321Z,7.93
2019-04-04T18:02:13.480Z,7.85
2019-04-04T18:04:48.479Z,7.80
2019-04-04T18:07:18.742Z,7.64
2019-04-04T18:09:50.845Z,7.59
2019-04-04T18:12:21.914Z,7.51
2019-04-04T18:14:53.046Z,7.30
2019-04-04T18:17:24.210Z,7.30
2019-04-04T18:19:55.347Z,7.25
2019-04-04T18:22:26.489Z,7.18
2019-04-04T18:24:57.586Z,7.09
2019-04-04T18:27:28.654Z,6.93
2019-04-04T18:30:00.889Z,6.85
2019-04-04T18:32:31.966Z,6.74
2019-04-04T18:35:03.613Z,6.65
2019-04-04T18:37:34.828Z,6.58
2019-04-04T18:40:08.073Z,6.51
2019-04-04T18:42:39.150Z,6.67
2019-04-04T18:45:11.547Z,6.67
2019-04-04T18:47:42.725Z,7.10
2019-04-04T18:50:13.996Z,7.22
2019-04-04T18:52:46.316Z,7.19
2019-04-04T18:55:19.944Z,7.19
2019-04-04T18:57:50.711Z,7.06
2019-04-04T19:00:21.985Z,6.81
2019-04-04T19:02:53.238Z,6.81
2019-04-04T19:05:24.386Z,6.57
2019-04-04T19:07:55.465Z,6.46
2019-04-04T19:10:26.769Z,6.35
2019-04-04T19:13:05.237Z,6.22
2019-04-04T19:15:30.771Z,6.12
2019-04-04T19:18:01.976Z,6.12
2019-04-04T19:20:33.158Z,6.09
2019-04-04T19:23:04.252Z,5.88
2019-04-04T19:25:35.784Z,5.87
2019-04-04T19:28:07.731Z,5.90
2019-04-04T19:30:38.965Z,5.70
2019-04-04T19:33:11.257Z,5.70
2019-04-04T19:35:42.564Z,5.59
2019-04-04T19:38:13.665Z,5.56
2019-04-04T19:40:44.759Z,5.51
2019-04-04T19:43:18.278Z,5.47
2019-04-04T19:45:48.637Z,5.45
2019-04-04T19:48:19.817Z,5.32
2019-04-04T19:50:51.918Z,5.29
2019-04-04T19:53:23.056Z,5.15
2019-04-04T19:55:55.387Z,5.02
2019-04-04T19:58:26.581Z,5.10
2019-04-04T20:00:57.840Z,4.95
2019-04-04T20:03:28.984Z,5.39
2019-04-04T20:06:00.194Z,5.82
2019-04-04T20:08:31.311Z,5.86
2019-04-04T20:11:02.703Z,5.81
2019-04-04T20:13:33.833Z,5.78
2019-04-04T20:16:04.935Z,5.70
2019-04-04T20:18:36.061Z,5.58
2019-04-04T20:21:07.089Z,5.45
2019-04-04T20:23:38.183Z,5.38
2019-04-04T20:26:09.351Z,5.16
2019-04-04T20:28:40.523Z,5.02
2019-04-04T20:31:11.695Z,4.89
2019-04-04T20:33:42.818Z,4.83
2019-04-04T20:36:13.841Z,4.74
2019-04-04T20:38:45.080Z,4.65
2019-04-04T20:41:16.728Z,4.67
2019-04-04T20:43:48.045Z,4.67
2019-04-04T20:46:19.165Z,4.63
2019-04-04T20:48:50.486Z,4.57
2019-04-04T20:51:21.590Z,4.54
2019-04-04T20:53:52.741Z,4.48
2019-04-04T20:56:23.863Z,4.17
2019-04-04T20:58:54.930Z,4.13
2019-04-04T21:01:26.155Z,4.06
2019-04-04T21:03:57.326Z,4.15
2019-04-04T21:06:28.433Z,3.99
2019-04-04T21:08:59.535Z,3.94
2019-04-04T21:11:30.905Z,3.84
2019-04-04T21:14:01.996Z,3.81
2019-04-04T21:16:33.044Z,3.81
2019-04-04T21:19:04.135Z,3.81
2019-04-04T21:21:35.177Z,3.73
2019-04-04T21:24:06.213Z,3.65
2019-04-04T21:26:37.387Z,3.67
2019-04-04T21:29:08.445Z,3.53
2019-04-04T21:31:39.468Z,3.50
2019-04-04T21:34:10.509Z,3.54
2019-04-04T21:36:41.639Z,3.57
2019-04-04T21:39:12.720Z,3.55
2019-04-04T21:41:43.817Z,3.48
2019-04-04T21:44:14.993Z,3.52
2019-04-04T21:46:46.416Z,3.38
2019-04-04T21:49:17.471Z,3.37
2019-04-04T21:51:48.558Z,3.31
2019-04-04T21:54:19.683Z,3.27
2019-04-04T21:56:50.764Z,3.20
2019-04-04T21:59:21.892Z,3.21
2019-04-04T22:01:53.210Z,3.26
2019-04-04T22:04:24.453Z,3.20
2019-04-04T22:06:55.558Z,3.07
2019-04-04T22:09:26.789Z,3.03
2019-04-04T22:11:58.004Z,2.95
2019-04-04T22:14:29.101Z,2.88
2019-04-04T22:17:00.310Z,2.89
2019-04-04T22:19:32.513Z,2.78
2019-04-04T22:22:03.700Z,2.83
2019-04-04T22:24:34.917Z,2.86
2019-04-04T22:27:06.244Z,2.80
2019-04-04T22:29:37.290Z,2.79
2019-04-04T22:32:08.487Z,2.74
2019-04-04T22:34:39.580Z,2.64
2019-04-04T22:37:10.821Z,2.58
2019-04-04T22:39:41.980Z,2.57
2019-04-04T22:42:13.327Z,2.57
2019-04-04T22:44:44.493Z,2.56
2019-04-04T22:47:15.646Z,2.51
2019-04-04T22:49:46.815Z,2.55
2019-04-04T22:52:17.827Z,2.52
2019-04-04T22:54:48.888Z,2.53
2019-04-04T22:57:19.926Z,2.45
2019-04-04T22:59:51.026Z,2.47
2019-04-04T23:02:22.182Z,2.50
2019-04-04T23:04:53.255Z,2.45
2019-04-04T23:07:24.343Z,2.45
2019-04-04T23:09:55.404Z,2.38
2019-04-04T23:12:26.547Z,2.33
2019-04-04T23:14:57.597Z,2.31
2019-04-04T23:17:29.805Z,2.24
2019-04-04T23:20:01.077Z,2.19
2019-04-04T23:22:32.157Z,2.05
2019-04-04T23:25:03.688Z,2.06
2019-04-04T23:27:34.682Z,1.96
2019-04-04T23:30:06.365Z,2.02
2019-04-04T23:32:37.506Z,2.21
2019-04-04T23:35:08.558Z,2.16
2019-04-04T23:37:39.632Z,1.98
2019-04-04T23:40:10.752Z,1.97
2019-04-04T23:42:41.766Z,1.83
2019-04-04T23:45:13.047Z,1.92
2019-04-04T23:47:44.283Z,1.84
2019-04-04T23:50:15.528Z,1.85
2019-04-04T23:52:46.669Z,1.77
2019-04-04T23:55:18.840Z,1.70
2019-04-04T23:57:50.030Z,1.57
